sensor_id;sensor_type;location;lat;lon;timestamp;P1;durP1;ratioP1;P2;durP2;ratioP2
24301;SDS011;12421;49.732;20.078;2023-05-20T00:01:37;16.00;;;11.90;;
24301;SDS011;12421;49.732;20.078;2023-05-20T00:11:40;14.80;;;10.50;;
24301;SDS011;12421;49.732;20.078;2023-05-20T00:21:43;16.50;;;11.10;;
24301;SDS011;12421;49.732;20.078;2023-05-20T00:31:46;15.70;;;10.40;;
24301;SDS011;12421;49.732;20.078;2023-05-20T00:41:50;14.30;;;11.20;;
24301;SDS011;12421;49.732;20.078;2023-05-20T00:51:53;14.00;;;10.80;;
24301;SDS011;12421;49.732;20.078;2023-05-20T01:01:57;15.90;;;11.30;;
24301;SDS011;12421;49.732;20.078;2023-05-20T01:22:12;14.60;;;10.20;;
24301;SDS011;12421;49.732;20.078;2023-05-20T01:32:24;13.30;;;9.70;;
24301;SDS011;12421;49.732;20.078;2023-05-20T01:42:42;15.10;;;9.80;;
24301;SDS011;12421;49.732;20.078;2023-05-20T01:52:48;13.50;;;9.60;;
24301;SDS011;12421;49.732;20.078;2023-05-20T02:02:51;14.00;;;9.20;;
24301;SDS011;12421;49.732;20.078;2023-05-20T02:12:54;13.10;;;9.50;;
24301;SDS011;12421;49.732;20.078;2023-05-20T02:22:58;11.70;;;8.50;;
24301;SDS011;12421;49.732;20.078;2023-05-20T02:33:01;10.90;;;7.80;;
24301;SDS011;12421;49.732;20.078;2023-05-20T02:43:04;11.20;;;7.50;;
24301;SDS011;12421;49.732;20.078;2023-05-20T02:53:08;10.40;;;8.10;;
24301;SDS011;12421;49.732;20.078;2023-05-20T03:03:12;11.70;;;8.10;;
24301;SDS011;12421;49.732;20.078;2023-05-20T03:13:15;9.20;;;7.80;;
24301;SDS011;12421;49.732;20.078;2023-05-20T03:23:19;10.10;;;7.50;;
24301;SDS011;12421;49.732;20.078;2023-05-20T03:33:23;9.50;;;7.00;;
24301;SDS011;12421;49.732;20.078;2023-05-20T03:43:28;11.10;;;7.10;;
24301;SDS011;12421;49.732;20.078;2023-05-20T03:53:31;10.20;;;7.70;;
24301;SDS011;12421;49.732;20.078;2023-05-20T04:03:35;12.00;;;7.90;;
24301;SDS011;12421;49.732;20.078;2023-05-20T04:13:39;10.60;;;8.10;;
24301;SDS011;12421;49.732;20.078;2023-05-20T04:23:42;9.10;;;7.20;;
24301;SDS011;12421;49.732;20.078;2023-05-20T04:33:46;8.00;;;5.50;;
24301;SDS011;12421;49.732;20.078;2023-05-20T04:43:49;4.20;;;3.20;;
24301;SDS011;12421;49.732;20.078;2023-05-20T04:53:52;5.10;;;3.60;;
24301;SDS011;12421;49.732;20.078;2023-05-20T05:03:56;4.40;;;3.30;;
24301;SDS011;12421;49.732;20.078;2023-05-20T05:13:59;5.20;;;4.00;;
24301;SDS011;12421;49.732;20.078;2023-05-20T05:24:03;5.50;;;3.90;;
24301;SDS011;12421;49.732;20.078;2023-05-20T05:34:06;5.40;;;3.90;;
24301;SDS011;12421;49.732;20.078;2023-05-20T05:44:09;5.30;;;4.10;;
24301;SDS011;12421;49.732;20.078;2023-05-20T05:54:12;6.60;;;4.10;;
24301;SDS011;12421;49.732;20.078;2023-05-20T06:04:16;5.80;;;4.00;;
24301;SDS011;12421;49.732;20.078;2023-05-20T06:14:19;6.20;;;4.20;;
24301;SDS011;12421;49.732;20.078;2023-05-20T06:24:23;5.50;;;3.90;;
24301;SDS011;12421;49.732;20.078;2023-05-20T06:34:27;5.70;;;4.10;;
24301;SDS011;12421;49.732;20.078;2023-05-20T06:44:31;4.70;;;3.60;;
24301;SDS011;12421;49.732;20.078;2023-05-20T06:55:04;4.80;;;4.00;;
24301;SDS011;12421;49.732;20.078;2023-05-20T07:05:09;4.70;;;3.80;;
24301;SDS011;12421;49.732;20.078;2023-05-20T07:15:12;6.10;;;4.00;;
24301;SDS011;12421;49.732;20.078;2023-05-20T07:25:16;6.30;;;4.00;;
24301;SDS011;12421;49.732;20.078;2023-05-20T07:35:20;6.10;;;3.80;;
24301;SDS011;12421;49.732;20.078;2023-05-20T07:45:24;5.20;;;4.20;;
24301;SDS011;12421;49.732;20.078;2023-05-20T07:55:27;5.00;;;4.10;;
24301;SDS011;12421;49.732;20.078;2023-05-20T08:05:32;5.40;;;4.30;;
24301;SDS011;12421;49.732;20.078;2023-05-20T08:15:35;6.00;;;5.10;;
24301;SDS011;12421;49.732;20.078;2023-05-20T08:25:39;7.20;;;4.60;;
24301;SDS011;12421;49.732;20.078;2023-05-20T08:35:42;5.90;;;4.60;;
24301;SDS011;12421;49.732;20.078;2023-05-20T08:45:46;7.80;;;5.40;;
24301;SDS011;12421;49.732;20.078;2023-05-20T08:55:53;6.70;;;5.70;;
24301;SDS011;12421;49.732;20.078;2023-05-20T09:06:03;12.50;;;6.60;;
24301;SDS011;12421;49.732;20.078;2023-05-20T09:16:08;8.30;;;6.60;;
24301;SDS011;12421;49.732;20.078;2023-05-20T09:26:12;15.40;;;7.20;;
24301;SDS011;12421;49.732;20.078;2023-05-20T09:36:16;10.00;;;7.30;;
24301;SDS011;12421;49.732;20.078;2023-05-20T09:46:22;8.70;;;7.10;;
24301;SDS011;12421;49.732;20.078;2023-05-20T09:56:25;10.80;;;8.40;;
24301;SDS011;12421;49.732;20.078;2023-05-20T10:17:10;9.90;;;8.50;;
24301;SDS011;12421;49.732;20.078;2023-05-20T10:27:21;11.70;;;9.50;;
24301;SDS011;12421;49.732;20.078;2023-05-20T10:37:29;11.90;;;8.50;;
24301;SDS011;12421;49.732;20.078;2023-05-20T10:47:34;11.50;;;9.60;;
24301;SDS011;12421;49.732;20.078;2023-05-20T10:57:39;13.00;;;9.90;;
24301;SDS011;12421;49.732;20.078;2023-05-20T11:07:43;11.10;;;9.70;;
24301;SDS011;12421;49.732;20.078;2023-05-20T11:17:56;14.20;;;10.40;;
24301;SDS011;12421;49.732;20.078;2023-05-20T11:28:01;14.40;;;12.50;;
24301;SDS011;12421;49.732;20.078;2023-05-20T11:38:05;13.50;;;11.40;;
24301;SDS011;12421;49.732;20.078;2023-05-20T11:48:12;17.50;;;13.40;;
24301;SDS011;12421;49.732;20.078;2023-05-20T11:58:18;15.90;;;13.00;;
24301;SDS011;12421;49.732;20.078;2023-05-20T12:08:26;20.50;;;15.90;;
24301;SDS011;12421;49.732;20.078;2023-05-20T12:18:30;16.50;;;14.50;;
24301;SDS011;12421;49.732;20.078;2023-05-20T12:28:33;17.80;;;15.10;;
24301;SDS011;12421;49.732;20.078;2023-05-20T12:38:37;19.30;;;16.40;;
24301;SDS011;12421;49.732;20.078;2023-05-20T12:48:40;21.80;;;16.20;;
24301;SDS011;12421;49.732;20.078;2023-05-20T12:58:44;19.50;;;15.90;;
24301;SDS011;12421;49.732;20.078;2023-05-20T13:08:47;22.10;;;15.00;;
24301;SDS011;12421;49.732;20.078;2023-05-20T13:18:51;19.40;;;15.00;;
24301;SDS011;12421;49.732;20.078;2023-05-20T13:28:54;15.00;;;13.30;;
24301;SDS011;12421;49.732;20.078;2023-05-20T13:38:58;17.70;;;15.00;;
24301;SDS011;12421;49.732;20.078;2023-05-20T13:49:01;17.30;;;12.40;;
24301;SDS011;12421;49.732;20.078;2023-05-20T13:59:04;16.00;;;12.50;;
24301;SDS011;12421;49.732;20.078;2023-05-20T14:09:07;15.20;;;12.20;;
24301;SDS011;12421;49.732;20.078;2023-05-20T14:19:11;13.80;;;11.80;;
24301;SDS011;12421;49.732;20.078;2023-05-20T14:29:14;15.60;;;11.70;;
24301;SDS011;12421;49.732;20.078;2023-05-20T14:39:17;16.60;;;10.50;;
24301;SDS011;12421;49.732;20.078;2023-05-20T14:49:20;14.20;;;10.90;;
24301;SDS011;12421;49.732;20.078;2023-05-20T14:59:24;19.30;;;10.90;;
24301;SDS011;12421;49.732;20.078;2023-05-20T15:09:27;17.60;;;10.90;;
24301;SDS011;12421;49.732;20.078;2023-05-20T15:19:30;15.80;;;11.70;;
24301;SDS011;12421;49.732;20.078;2023-05-20T15:29:34;11.60;;;8.50;;
24301;SDS011;12421;49.732;20.078;2023-05-20T15:39:40;13.70;;;9.20;;
24301;SDS011;12421;49.732;20.078;2023-05-20T15:49:43;13.10;;;10.30;;
24301;SDS011;12421;49.732;20.078;2023-05-20T15:59:47;15.90;;;11.10;;
24301;SDS011;12421;49.732;20.078;2023-05-20T16:09:50;13.90;;;12.40;;
24301;SDS011;12421;49.732;20.078;2023-05-20T16:19:53;14.00;;;11.50;;
24301;SDS011;12421;49.732;20.078;2023-05-20T16:29:58;16.10;;;12.60;;
24301;SDS011;12421;49.732;20.078;2023-05-20T16:40:01;15.50;;;12.00;;
24301;SDS011;12421;49.732;20.078;2023-05-20T16:50:06;17.30;;;12.40;;
24301;SDS011;12421;49.732;20.078;2023-05-20T17:00:10;18.50;;;13.60;;
24301;SDS011;12421;49.732;20.078;2023-05-20T17:10:15;18.10;;;14.00;;
24301;SDS011;12421;49.732;20.078;2023-05-20T17:20:18;16.70;;;12.60;;
24301;SDS011;12421;49.732;20.078;2023-05-20T17:30:21;19.80;;;14.10;;
24301;SDS011;12421;49.732;20.078;2023-05-20T17:40:24;18.10;;;13.30;;
24301;SDS011;12421;49.732;20.078;2023-05-20T17:50:28;18.50;;;13.60;;
24301;SDS011;12421;49.732;20.078;2023-05-20T18:00:31;25.80;;;15.20;;
24301;SDS011;12421;49.732;20.078;2023-05-20T18:10:37;20.10;;;15.40;;
24301;SDS011;12421;49.732;20.078;2023-05-20T18:20:40;19.90;;;14.50;;
24301;SDS011;12421;49.732;20.078;2023-05-20T18:30:44;17.40;;;12.50;;
24301;SDS011;12421;49.732;20.078;2023-05-20T18:40:47;20.90;;;15.60;;
24301;SDS011;12421;49.732;20.078;2023-05-20T18:50:51;25.00;;;17.80;;
24301;SDS011;12421;49.732;20.078;2023-05-20T19:11:53;27.60;;;21.20;;
24301;SDS011;12421;49.732;20.078;2023-05-20T19:22:01;40.60;;;28.80;;
24301;SDS011;12421;49.732;20.078;2023-05-20T19:32:05;29.70;;;22.40;;
24301;SDS011;12421;49.732;20.078;2023-05-20T19:42:08;17.70;;;13.70;;
24301;SDS011;12421;49.732;20.078;2023-05-20T19:52:14;21.10;;;16.40;;
24301;SDS011;12421;49.732;20.078;2023-05-20T20:02:20;25.60;;;15.50;;
24301;SDS011;12421;49.732;20.078;2023-05-20T20:12:25;14.90;;;11.40;;
24301;SDS011;12421;49.732;20.078;2023-05-20T20:22:28;17.20;;;13.60;;
24301;SDS011;12421;49.732;20.078;2023-05-20T20:32:32;17.30;;;13.50;;
24301;SDS011;12421;49.732;20.078;2023-05-20T20:42:39;22.40;;;13.50;;
24301;SDS011;12421;49.732;20.078;2023-05-20T20:52:43;19.20;;;12.70;;
24301;SDS011;12421;49.732;20.078;2023-05-20T21:02:51;17.20;;;12.90;;
24301;SDS011;12421;49.732;20.078;2023-05-20T21:12:55;24.60;;;13.70;;
24301;SDS011;12421;49.732;20.078;2023-05-20T21:22:59;19.10;;;12.50;;
24301;SDS011;12421;49.732;20.078;2023-05-20T21:33:03;20.80;;;15.40;;
24301;SDS011;12421;49.732;20.078;2023-05-20T21:43:06;16.40;;;13.00;;
24301;SDS011;12421;49.732;20.078;2023-05-20T21:53:09;17.20;;;13.20;;
24301;SDS011;12421;49.732;20.078;2023-05-20T22:03:12;57.30;;;35.50;;
24301;SDS011;12421;49.732;20.078;2023-05-20T22:13:16;69.60;;;43.50;;
24301;SDS011;12421;49.732;20.078;2023-05-20T22:23:22;70.10;;;45.70;;
24301;SDS011;12421;49.732;20.078;2023-05-20T22:33:25;82.40;;;51.00;;
24301;SDS011;12421;49.732;20.078;2023-05-20T22:43:28;44.60;;;27.80;;
24301;SDS011;12421;49.732;20.078;2023-05-20T22:53:31;41.60;;;28.10;;
24301;SDS011;12421;49.732;20.078;2023-05-20T23:03:35;44.80;;;30.20;;
24301;SDS011;12421;49.732;20.078;2023-05-20T23:13:38;26.90;;;19.20;;
24301;SDS011;12421;49.732;20.078;2023-05-20T23:23:41;20.60;;;15.10;;
24301;SDS011;12421;49.732;20.078;2023-05-20T23:33:44;21.00;;;15.00;;
24301;SDS011;12421;49.732;20.078;2023-05-20T23:43:47;33.40;;;13.90;;
24301;SDS011;12421;49.732;20.078;2023-05-20T23:53:50;30.90;;;11.80;;
